Detalii statie SADELLI PRODCOM [00001D03]

Toti senzorii

Date Temperatura solului [C]Precipitatii [mm]Voltaj baterie [mV]Leaf Wetness [Min]HC Air temperature [C]HC Relative humidity [%]Punctul de roua [C]
medieminmaxsumaultimatimpmedieminmaxmediemediemin
2017-10-20 09:00:00 11.4 11.3 11.7 0 7148 9.92 7 13.37 0 0 0
2017-10-20 10:00:00 12.2 11.7 12.7 0 7206 15.16 13.9 16.06 0 0 0
2017-10-20 11:00:00 13.8 12.8 14.7 0 7206 17.05 16.14 17.92 0 0 0
2017-10-20 12:00:00 15.9 15 16.9 0 7196 18.86 17.7 20.01 0 0 0
2017-10-20 13:00:00 17.7 16.9 18.5 0 7206 20.53 19.7 21.23 0 0 0
2017-10-20 14:00:00 19 18.5 19.6 0 7196 21.83 21.47 22.19 0 0 0
2017-10-20 15:00:00 19.4 19.2 19.8 0 7196 22.18 21.95 22.34 0 0 0
2017-10-20 16:00:00 19.7 19.6 19.9 0 7196 22.17 21.89 22.44 0 0 0
2017-10-20 17:00:00 19.2 18.8 19.6 0 6982 21.08 19.25 21.93 0 0 0
2017-10-20 18:00:00 17.9 17.4 18.5 0 6816 16.95 14.13 18.97 0 0 0
2017-10-20 19:00:00 16.7 16.3 17.4 0 6786 14.7 13.15 16.21 0 0 0
2017-10-20 20:00:00 15.8 15.4 16.2 0 6776 12.06 11.25 13.12 0 0 0
2017-10-20 21:00:00 15.1 14.8 15.5 0 6756 10.75 10.25 11.08 0 0 0
2017-10-20 22:00:00 14.5 14.3 14.9 0 6748 10.08 9.95 10.23 0 0 0
2017-10-20 23:00:00 14 13.8 14.2 0 6748 10.18 9.81 10.62 0 0 0
2017-10-21 00:00:00 13.5 13.4 13.8 0 6738 11.71 11.18 12.02 0 0 0
2017-10-21 01:00:00 13.2 13.1 13.4 0 6728 11.8 11.42 12.07 0 0 0
2017-10-21 02:00:00 13 13 13.2 0 6728 11.64 11.14 12.04 0 0 0
2017-10-21 03:00:00 12.8 12.7 13 0 6728 11.3 11.13 11.56 0 0 0
2017-10-21 04:00:00 12.6 12.5 12.8 0 6708 10.93 10.26 11.35 0 0 0
2017-10-21 05:00:00 12.4 12.3 12.5 0 6708 11.11 10.39 11.37 0 0 0
2017-10-21 06:00:00 12.2 12.1 12.4 0 6708 9.52 9.1 10.23 0 0 0
2017-10-21 07:00:00 11.9 11.7 12.1 0 6688 9.07 8.86 9.58 0 0 0
2017-10-21 08:00:00 11.7 11.7 11.9 0 6728 8.53 7.59 9.52 0 0 0
2017-10-21 09:00:00 11.7 11.6 11.9 0 7080 9.53 8.32 11.29 0 0 0
2017-10-21 10:00:00 12.2 11.9 12.9 0 7166 14.7 12.03 16.65 0 0 0
2017-10-21 11:00:00 13.7 13.1 14.4 0 7158 16.14 15.87 16.59 0 0 0
2017-10-21 12:00:00 14.9 14.5 15.5 0 7098 16.67 16.29 17.36 0 0 0
2017-10-21 13:00:00 15.6 15.4 15.8 0 7118 16.57 16.01 17.11 0 0 0
2017-10-21 14:00:00 16.1 15.9 16.5 0 7138 17.29 17.03 17.61 0 0 0
2017-10-21 15:00:00 16.6 16.4 16.7 0 7020 16.83 16.58 17.09 0 0 0
2017-10-21 16:00:00 16.5 16.3 16.8 0 7186 16.22 15.9 16.5 0 0 0
2017-10-21 17:00:00 16.1 16 16.4 0 6864 15.42 14.52 16.02 0 0 0
2017-10-21 18:00:00 15.8 15.5 16 0 6816 13.99 13.73 14.34 0 0 0
2017-10-21 19:00:00 15.2 15 15.5 0 6796 13.49 13.11 14.18 0 0 0
2017-10-21 20:00:00 14.8 14.6 15.2 0.4 6776 12.97 12.58 13.21 0 0 0
2017-10-21 21:00:00 14.5 14.4 14.7 0.4 6756 12.51 12.23 12.74 44.36 -0.5 0
2017-10-21 22:00:00 14.3 14.1 14.4 0.4 6748 11.73 11.41 12.15 100 11.6 11.4
2017-10-21 23:00:00 14 13.7 14.3 0 6748 10.97 10.66 11.46 100 10.9 10.6
2017-10-22 00:00:00 13.4 13.2 13.8 0 6728 10.32 10.07 10.59 100 10.2 10
2017-10-22 01:00:00 13 12.9 13.3 0 6738 10.15 10.05 10.28 100 10.1 10
2017-10-22 02:00:00 12.8 12.7 13 0 6718 9.72 9.61 9.89 100 9.6 9.6
2017-10-22 03:00:00 12.5 12.3 12.8 0 6708 9.13 8.68 9.58 100 9 8.6
2017-10-22 04:00:00 12.1 11.9 12.4 0.2 6688 7.78 7.4 8.6 100 7.7 7.4
2017-10-22 05:00:00 11.7 11.6 11.9 0 6678 6.85 6.31 7.51 100 6.8 6.3
2017-10-22 06:00:00 11.4 11.3 11.6 0 6668 6.51 6.2 6.86 100 6.4 6.2
2017-10-22 07:00:00 11 11 11.3 0 6660 6 5.63 6.58 100 5.9 5.6
2017-10-22 08:00:00 10.8 10.7 11 0 6678 7.01 5.74 8.34 100 6.9 5.7